createdAt,value
2022-11-12T00:02:47.781Z,7.10
2022-11-12T00:05:35.777Z,7.10
2022-11-12T00:08:24.120Z,7.10
2022-11-12T00:11:12.484Z,7.10
2022-11-12T00:14:00.353Z,7.20
2022-11-12T00:16:48.269Z,7.20
2022-11-12T00:19:37.479Z,7.20
2022-11-12T00:22:25.396Z,7.20
2022-11-12T00:25:14.274Z,7.00
2022-11-12T00:28:03.153Z,6.90
2022-11-12T00:30:51.014Z,6.80
2022-11-12T00:33:42.604Z,6.80
2022-11-12T00:36:32.038Z,6.70
2022-11-12T00:39:19.927Z,6.60
2022-11-12T00:42:07.969Z,6.50
2022-11-12T00:44:55.800Z,6.40
2022-11-12T00:47:43.700Z,6.40
2022-11-12T00:50:31.682Z,6.50
2022-11-12T00:53:21.016Z,6.50
2022-11-12T00:56:09.274Z,6.50
2022-11-12T00:58:59.357Z,6.50
2022-11-12T01:01:47.257Z,6.50
2022-11-12T01:04:35.198Z,6.40
2022-11-12T01:07:23.061Z,6.40
2022-11-12T01:10:12.871Z,6.50
2022-11-12T01:13:00.853Z,6.40
2022-11-12T01:15:48.761Z,6.30
2022-11-12T01:18:36.876Z,6.30
2022-11-12T01:21:25.493Z,6.10
2022-11-12T01:24:13.517Z,6.00
2022-11-12T01:27:02.766Z,6.00
2022-11-12T01:29:50.657Z,5.90
2022-11-12T01:32:38.528Z,5.90
2022-11-12T01:35:26.356Z,5.90
2022-11-12T01:38:14.216Z,5.80
2022-11-12T01:41:02.153Z,5.70
2022-11-12T01:44:04.971Z,5.70
2022-11-12T01:46:59.370Z,5.70
2022-11-12T01:49:54.169Z,5.70
2022-11-12T01:52:45.912Z,5.70
2022-11-12T01:55:35.950Z,5.70
2022-11-12T01:58:25.955Z,5.60
2022-11-12T02:01:14.102Z,5.60
2022-11-12T02:04:03.681Z,5.50
2022-11-12T02:06:52.760Z,5.50
2022-11-12T02:09:40.752Z,5.50
2022-11-12T02:12:46.386Z,5.50
2022-11-12T02:15:34.399Z,5.40
2022-11-12T02:18:22.270Z,5.50
2022-11-12T02:21:11.467Z,5.50
2022-11-12T02:24:02.090Z,5.50
2022-11-12T02:26:51.302Z,5.50
2022-11-12T02:29:46.272Z,5.60
2022-11-12T02:32:34.283Z,5.70
2022-11-12T02:35:22.360Z,5.70
2022-11-12T02:38:10.471Z,5.70
2022-11-12T02:40:59.856Z,5.60
2022-11-12T02:43:47.986Z,5.60
2022-11-12T02:46:35.847Z,5.50
2022-11-12T02:49:23.883Z,5.50
2022-11-12T02:52:12.144Z,5.60
2022-11-12T02:54:59.995Z,5.40
2022-11-12T02:57:49.216Z,5.40
2022-11-12T03:00:37.262Z,5.30
2022-11-12T03:03:25.382Z,5.30
2022-11-12T03:06:13.461Z,5.40
2022-11-12T03:09:01.327Z,5.30
2022-11-12T03:11:49.378Z,5.20
2022-11-12T03:14:38.731Z,5.30
2022-11-12T03:17:26.641Z,5.30
2022-11-12T03:20:14.524Z,5.30
2022-11-12T03:23:04.012Z,5.20
2022-11-12T03:25:51.822Z,5.10
2022-11-12T03:28:39.724Z,5.10
2022-11-12T03:31:28.977Z,5.00
2022-11-12T03:34:16.912Z,5.00
2022-11-12T03:37:04.767Z,4.90
2022-11-12T03:39:52.623Z,5.00
2022-11-12T03:42:40.495Z,5.00
2022-11-12T03:45:28.922Z,5.00
2022-11-12T03:48:18.293Z,5.10
2022-11-12T03:51:06.200Z,5.10
2022-11-12T03:53:54.079Z,5.10
2022-11-12T03:56:42.066Z,5.10
2022-11-12T03:59:30.134Z,5.10
2022-11-12T04:02:18.038Z,5.10
2022-11-12T04:05:25.785Z,5.10
2022-11-12T04:08:32.253Z,5.00
2022-11-12T04:11:21.062Z,5.00
2022-11-12T04:14:09.109Z,4.90
2022-11-12T04:17:14.619Z,4.90
2022-11-12T04:20:20.082Z,4.80
2022-11-12T04:23:09.372Z,4.80
2022-11-12T04:26:14.859Z,4.80
2022-11-12T04:29:20.345Z,4.70
2022-11-12T04:32:08.259Z,4.70
2022-11-12T04:34:56.279Z,4.70
2022-11-12T04:37:47.132Z,4.60
2022-11-12T04:40:53.833Z,4.70
2022-11-12T04:43:59.242Z,4.60
2022-11-12T04:46:47.158Z,4.60
2022-11-12T04:49:35.050Z,4.80
2022-11-12T04:52:22.895Z,5.00
2022-11-12T04:55:11.829Z,5.10
2022-11-12T04:58:01.231Z,5.20
2022-11-12T05:00:50.258Z,5.30
2022-11-12T05:03:38.167Z,5.10
2022-11-12T05:06:43.836Z,5.10
2022-11-12T05:09:31.762Z,5.10
2022-11-12T05:12:19.648Z,5.00
2022-11-12T05:15:09.861Z,5.00
2022-11-12T05:17:57.831Z,5.00
2022-11-12T05:20:45.653Z,5.00
2022-11-12T05:23:33.555Z,4.90
2022-11-12T05:26:21.402Z,4.90
2022-11-12T05:29:09.447Z,4.80
2022-11-12T05:31:58.690Z,4.80
2022-11-12T05:34:46.637Z,4.80
2022-11-12T05:37:34.519Z,4.70
2022-11-12T05:40:22.340Z,4.60
2022-11-12T05:43:10.247Z,4.60
2022-11-12T05:45:58.305Z,4.60
2022-11-12T05:48:47.664Z,4.50
2022-11-12T05:51:35.640Z,4.50
2022-11-12T05:54:24.944Z,4.50
2022-11-12T05:57:12.840Z,4.40
2022-11-12T06:00:00.669Z,4.40
2022-11-12T06:02:48.592Z,4.40
2022-11-12T06:05:38.179Z,4.40
2022-11-12T06:08:26.346Z,4.40
2022-11-12T06:11:14.559Z,4.40
2022-11-12T06:14:02.823Z,4.40
2022-11-12T06:16:50.781Z,4.50
2022-11-12T06:19:38.830Z,4.50
2022-11-12T06:22:28.086Z,4.60
2022-11-12T06:25:16.119Z,4.60
2022-11-12T06:28:04.176Z,4.70
2022-11-12T06:30:52.092Z,4.70
2022-11-12T06:33:40.287Z,4.60
2022-11-12T06:36:28.560Z,4.60
2022-11-12T06:39:17.859Z,4.70
2022-11-12T06:42:05.818Z,4.70
2022-11-12T06:44:53.705Z,4.70
2022-11-12T06:47:41.592Z,4.70
2022-11-12T06:50:29.447Z,4.80
2022-11-12T06:53:17.300Z,4.80
2022-11-12T06:56:07.968Z,4.80
2022-11-12T06:58:55.848Z,4.80
2022-11-12T07:01:43.798Z,4.90
2022-11-12T07:04:31.741Z,4.90
2022-11-12T07:07:19.813Z,4.90
2022-11-12T07:10:08.395Z,4.90
2022-11-12T07:12:57.697Z,5.00
2022-11-12T07:15:45.550Z,4.90
2022-11-12T07:18:34.078Z,5.00
2022-11-12T07:21:21.976Z,5.00
2022-11-12T07:24:10.301Z,5.00
2022-11-12T07:26:58.160Z,5.10
2022-11-12T07:29:48.640Z,5.20
2022-11-12T07:32:42.841Z,5.20
2022-11-12T07:35:32.785Z,5.30
2022-11-12T07:38:20.656Z,5.30
2022-11-12T07:41:09.548Z,5.40
2022-11-12T07:43:57.466Z,5.40
2022-11-12T07:46:46.827Z,5.40
2022-11-12T07:49:34.790Z,5.40
2022-11-12T07:52:22.756Z,5.60
2022-11-12T07:55:10.606Z,5.60
2022-11-12T07:57:59.895Z,5.70
2022-11-12T08:00:48.007Z,5.70
2022-11-12T08:03:37.389Z,5.90
2022-11-12T08:06:25.309Z,5.90
2022-11-12T08:09:13.668Z,6.10
2022-11-12T08:12:01.577Z,6.10
2022-11-12T08:14:49.393Z,6.20
2022-11-12T08:17:39.031Z,6.20
2022-11-12T08:20:28.301Z,6.30
2022-11-12T08:23:16.140Z,6.40
2022-11-12T08:26:05.201Z,6.50
2022-11-12T08:28:53.065Z,6.60
2022-11-12T08:31:40.968Z,6.70
2022-11-12T08:34:28.893Z,6.80
2022-11-12T08:37:18.259Z,6.90
2022-11-12T08:40:06.571Z,6.90
2022-11-12T08:42:58.132Z,7.00
2022-11-12T08:45:46.154Z,7.00
2022-11-12T08:48:35.130Z,7.10
2022-11-12T08:51:22.993Z,7.10
2022-11-12T08:54:12.222Z,7.20
2022-11-12T08:57:00.375Z,7.30
2022-11-12T08:59:48.246Z,7.40
2022-11-12T09:02:37.833Z,7.40
2022-11-12T09:05:27.641Z,7.50
2022-11-12T09:08:16.995Z,7.60
2022-11-12T09:11:06.540Z,7.70
2022-11-12T09:13:54.583Z,7.80
2022-11-12T09:16:42.590Z,7.90
2022-11-12T09:19:30.543Z,8.00
2022-11-12T09:22:18.425Z,8.10
2022-11-12T09:25:06.649Z,8.10
2022-11-12T09:27:56.170Z,8.20
2022-11-12T09:30:46.366Z,8.20
2022-11-12T09:33:34.797Z,8.30
2022-11-12T09:36:22.704Z,8.40
2022-11-12T09:39:10.714Z,8.40
2022-11-12T09:42:01.990Z,8.50
2022-11-12T09:44:57.179Z,8.60
2022-11-12T09:47:46.378Z,8.60
2022-11-12T09:50:36.349Z,8.70
2022-11-12T09:53:27.128Z,8.80
2022-11-12T09:56:21.582Z,8.90
2022-11-12T09:59:11.468Z,9.00
2022-11-12T10:02:03.822Z,9.10
2022-11-12T10:04:59.635Z,9.20
2022-11-12T10:07:50.425Z,9.30
2022-11-12T10:10:42.996Z,9.40
2022-11-12T10:13:38.770Z,9.50
2022-11-12T10:16:44.751Z,9.50
2022-11-12T10:19:41.428Z,9.50
2022-11-12T10:22:34.321Z,9.60
2022-11-12T10:25:22.216Z,9.60
2022-11-12T10:28:15.055Z,9.60
2022-11-12T10:31:06.986Z,9.70
2022-11-12T10:33:55.663Z,9.70
2022-11-12T10:36:46.570Z,9.80
2022-11-12T10:39:35.731Z,9.80
2022-11-12T10:42:24.362Z,9.90
2022-11-12T10:45:20.258Z,10.00
2022-11-12T10:48:26.824Z,10.10
2022-11-12T10:51:26.924Z,10.20
2022-11-12T10:54:28.891Z,10.30
2022-11-12T10:57:21.553Z,10.30
2022-11-12T11:00:18.132Z,10.50
2022-11-12T11:03:10.382Z,10.60
2022-11-12T11:06:00.549Z,10.70
2022-11-12T11:08:49.305Z,10.80
2022-11-12T11:11:38.617Z,10.80
2022-11-12T11:14:28.278Z,11.00
2022-11-12T11:17:17.613Z,11.00
2022-11-12T11:20:06.238Z,11.10
2022-11-12T11:22:57.137Z,11.20
2022-11-12T11:25:46.237Z,11.20
2022-11-12T11:28:39.747Z,11.20
2022-11-12T11:31:33.073Z,11.40
2022-11-12T11:34:28.088Z,11.40
2022-11-12T11:37:23.365Z,11.50
2022-11-12T11:40:14.039Z,11.60
2022-11-12T11:43:06.670Z,11.60
2022-11-12T11:46:03.481Z,11.70
2022-11-12T11:48:58.247Z,11.80
2022-11-12T11:51:51.509Z,11.80
2022-11-12T11:54:51.414Z,11.90
2022-11-12T11:57:49.913Z,12.00
2022-11-12T12:00:48.533Z,12.00
2022-11-12T12:03:46.444Z,12.10
2022-11-12T12:06:37.176Z,12.10
2022-11-12T12:09:32.073Z,12.10
2022-11-12T12:12:28.516Z,12.20
2022-11-12T12:15:31.007Z,12.20
2022-11-12T12:18:24.891Z,12.20
2022-11-12T12:21:15.718Z,12.30
2022-11-12T12:24:06.124Z,12.30
2022-11-12T12:26:55.139Z,12.30
2022-11-12T12:29:49.486Z,12.30
2022-11-12T12:32:40.383Z,12.30
2022-11-12T12:35:30.626Z,12.30
2022-11-12T12:38:22.683Z,12.40
2022-11-12T12:41:15.903Z,12.40
2022-11-12T12:44:04.789Z,12.40
2022-11-12T12:46:56.155Z,12.30
2022-11-12T12:49:45.073Z,12.40
2022-11-12T12:52:59.489Z,12.50
2022-11-12T12:55:49.482Z,12.50
2022-11-12T12:58:43.635Z,12.50
2022-11-12T13:01:34.634Z,12.60
2022-11-12T13:04:37.395Z,12.60
2022-11-12T13:07:39.936Z,12.70
2022-11-12T13:10:56.026Z,12.70
2022-11-12T13:13:45.317Z,12.70
2022-11-12T13:16:54.264Z,12.80
2022-11-12T13:19:46.129Z,12.80
2022-11-12T13:22:34.773Z,12.80
2022-11-12T13:25:26.583Z,12.80
2022-11-12T13:28:14.536Z,12.80
2022-11-12T13:31:05.241Z,12.80
2022-11-12T13:33:53.414Z,12.80
2022-11-12T13:36:42.967Z,12.80
2022-11-12T13:39:33.639Z,12.80
2022-11-12T13:42:39.216Z,12.80
2022-11-12T13:45:28.800Z,12.90
2022-11-12T13:48:22.190Z,12.80
2022-11-12T13:51:15.271Z,13.00
2022-11-12T13:54:03.493Z,12.80
2022-11-12T13:56:51.540Z,12.80
2022-11-12T13:59:39.417Z,12.80
2022-11-12T14:02:27.963Z,12.80
2022-11-12T14:05:18.259Z,12.80
2022-11-12T14:08:14.913Z,12.80
2022-11-12T14:11:10.256Z,12.80
2022-11-12T14:14:02.829Z,12.80
2022-11-12T14:16:57.967Z,12.80
2022-11-12T14:20:06.888Z,12.70
2022-11-12T14:22:56.280Z,12.70
2022-11-12T14:25:48.444Z,12.70
2022-11-12T14:28:37.188Z,12.70
2022-11-12T14:31:28.396Z,12.70
2022-11-12T14:34:21.916Z,12.60
2022-11-12T14:37:21.506Z,12.60
2022-11-12T14:40:17.640Z,12.50
2022-11-12T14:43:05.972Z,12.50
2022-11-12T14:45:55.128Z,12.50
2022-11-12T14:48:47.346Z,12.40
2022-11-12T14:51:41.121Z,12.40
2022-11-12T14:54:30.764Z,12.40
2022-11-12T14:57:23.514Z,12.40
2022-11-12T15:00:18.921Z,12.30
2022-11-12T15:03:07.876Z,12.30
2022-11-12T15:05:57.282Z,12.30
2022-11-12T15:08:45.259Z,12.20
2022-11-12T15:11:34.601Z,12.20
2022-11-12T15:14:25.226Z,12.10
2022-11-12T15:17:25.013Z,12.10
2022-11-12T15:20:14.785Z,12.10
2022-11-12T15:23:03.079Z,12.10
2022-11-12T15:25:58.627Z,12.00
2022-11-12T15:28:59.219Z,12.00
2022-11-12T15:31:49.324Z,11.90
2022-11-12T15:34:48.062Z,11.90
2022-11-12T15:37:41.892Z,11.90
2022-11-12T15:40:30.345Z,11.80
2022-11-12T15:43:19.575Z,11.80
2022-11-12T15:46:12.649Z,11.70
2022-11-12T15:49:02.205Z,11.70
2022-11-12T15:51:50.227Z,11.70
2022-11-12T15:54:41.279Z,11.60
2022-11-12T15:57:30.750Z,11.60
2022-11-12T16:00:20.052Z,11.60
2022-11-12T16:03:12.642Z,11.50
2022-11-12T16:06:08.338Z,11.50
2022-11-12T16:08:57.057Z,11.40
2022-11-12T16:11:44.985Z,11.40
2022-11-12T16:14:32.926Z,11.40
2022-11-12T16:17:22.068Z,11.40
2022-11-12T16:20:14.832Z,11.30
2022-11-12T16:23:06.227Z,11.30
2022-11-12T16:25:54.379Z,11.20
2022-11-12T16:28:43.839Z,11.20
2022-11-12T16:31:31.744Z,11.10
2022-11-12T16:34:19.651Z,11.10
2022-11-12T16:37:11.663Z,11.10
2022-11-12T16:40:01.012Z,11.10
2022-11-12T16:42:49.187Z,11.00
2022-11-12T16:45:39.157Z,11.00
2022-11-12T16:48:27.112Z,11.00
2022-11-12T16:51:17.391Z,11.00
2022-11-12T16:54:05.515Z,10.90
2022-11-12T16:56:54.860Z,10.70
2022-11-12T16:59:43.738Z,10.70
2022-11-12T17:02:31.602Z,10.70
2022-11-12T17:05:21.121Z,10.70
2022-11-12T17:08:09.855Z,10.80
2022-11-12T17:10:57.785Z,10.70
2022-11-12T17:13:50.089Z,10.70
2022-11-12T17:16:38.094Z,10.60
2022-11-12T17:19:26.123Z,10.40
2022-11-12T17:22:14.039Z,10.30
2022-11-12T17:25:01.967Z,10.30
2022-11-12T17:27:49.813Z,10.20
2022-11-12T17:30:39.371Z,10.20
2022-11-12T17:33:27.559Z,10.20
2022-11-12T17:36:16.946Z,10.30
2022-11-12T17:39:05.377Z,10.30
2022-11-12T17:41:53.250Z,10.30
2022-11-12T17:44:41.137Z,10.20
2022-11-12T17:47:30.769Z,10.20
2022-11-12T17:50:18.699Z,10.20
2022-11-12T17:53:06.612Z,10.10
2022-11-12T17:55:57.068Z,10.10
2022-11-12T17:58:45.740Z,10.00
2022-11-12T18:01:35.272Z,10.00
2022-11-12T18:04:26.616Z,10.00
2022-11-12T18:07:17.994Z,10.00
2022-11-12T18:10:06.397Z,9.90
2022-11-12T18:12:54.578Z,9.80
2022-11-12T18:15:42.471Z,9.90
2022-11-12T18:18:30.995Z,10.00
2022-11-12T18:21:20.367Z,10.00
2022-11-12T18:24:09.321Z,10.00
2022-11-12T18:26:57.523Z,10.10
2022-11-12T18:29:46.192Z,10.10
2022-11-12T18:32:34.069Z,10.10
2022-11-12T18:35:24.682Z,10.10
2022-11-12T18:38:18.016Z,10.00
2022-11-12T18:41:07.164Z,10.00
2022-11-12T18:43:55.393Z,10.00
2022-11-12T18:46:43.378Z,10.00
2022-11-12T18:49:31.332Z,9.90
2022-11-12T18:52:19.376Z,9.80
2022-11-12T18:55:09.740Z,9.70
2022-11-12T18:57:57.683Z,9.60
2022-11-12T19:00:45.612Z,9.60
2022-11-12T19:03:33.836Z,9.50
2022-11-12T19:06:22.275Z,9.50
2022-11-12T19:09:11.841Z,9.50
2022-11-12T19:12:04.782Z,9.50
2022-11-12T19:14:52.761Z,9.50
2022-11-12T19:17:40.611Z,9.60
2022-11-12T19:20:28.995Z,9.60
2022-11-12T19:23:17.375Z,9.60
2022-11-12T19:26:06.134Z,9.70
2022-11-12T19:28:55.401Z,9.60
2022-11-12T19:31:43.222Z,9.60
2022-11-12T19:34:31.084Z,9.50
2022-11-12T19:37:33.031Z,9.50
2022-11-12T19:40:21.875Z,9.50
2022-11-12T19:43:09.730Z,9.50
2022-11-12T19:45:58.994Z,9.60
2022-11-12T19:48:46.956Z,9.60
2022-11-12T19:51:34.808Z,9.50
2022-11-12T19:54:23.835Z,9.50
2022-11-12T19:57:11.941Z,9.50
2022-11-12T19:59:59.846Z,9.40
2022-11-12T20:02:49.171Z,9.40
2022-11-12T20:05:38.638Z,9.40
2022-11-12T20:08:26.806Z,9.50
2022-11-12T20:11:16.141Z,9.50
2022-11-12T20:14:04.266Z,9.50
2022-11-12T20:16:52.535Z,9.40
2022-11-12T20:19:41.801Z,9.40
2022-11-12T20:22:32.326Z,9.30
2022-11-12T20:25:20.527Z,9.30
2022-11-12T20:28:08.522Z,9.20
2022-11-12T20:31:00.471Z,9.20
2022-11-12T20:33:48.910Z,9.20
2022-11-12T20:36:38.785Z,9.10
2022-11-12T20:39:27.019Z,9.20
2022-11-12T20:42:18.229Z,9.20
2022-11-12T20:45:06.526Z,9.10
2022-11-12T20:47:55.598Z,9.20
2022-11-12T20:50:56.576Z,9.20
2022-11-12T20:53:58.949Z,9.20
2022-11-12T20:56:50.551Z,9.20
2022-11-12T20:59:41.203Z,9.20
2022-11-12T21:02:29.359Z,9.20
2022-11-12T21:05:17.464Z,9.20
2022-11-12T21:08:05.553Z,9.20
2022-11-12T21:10:55.178Z,9.20
2022-11-12T21:13:43.412Z,9.20
2022-11-12T21:16:31.336Z,9.20
2022-11-12T21:19:19.251Z,9.20
2022-11-12T21:22:07.115Z,9.10
2022-11-12T21:24:54.958Z,9.10
2022-11-12T21:27:44.228Z,9.10
2022-11-12T21:30:32.574Z,9.10
2022-11-12T21:33:21.115Z,9.00
2022-11-12T21:36:16.397Z,9.00
2022-11-12T21:39:07.455Z,9.00
2022-11-12T21:41:55.402Z,9.00
2022-11-12T21:44:44.721Z,9.00
2022-11-12T21:47:32.582Z,9.00
2022-11-12T21:50:20.520Z,9.00
2022-11-12T21:53:08.616Z,8.90
2022-11-12T21:56:01.599Z,8.90
2022-11-12T21:58:49.551Z,8.90
2022-11-12T22:01:40.519Z,8.90
2022-11-12T22:04:28.411Z,8.90
2022-11-12T22:07:16.312Z,9.00
2022-11-12T22:10:04.326Z,9.00
2022-11-12T22:13:19.649Z,9.10
2022-11-12T22:16:00.462Z,9.10
2022-11-12T22:18:51.769Z,9.00
2022-11-12T22:21:40.275Z,9.00
2022-11-12T22:24:28.222Z,9.00
2022-11-12T22:27:16.103Z,9.00
2022-11-12T22:30:04.144Z,9.00
2022-11-12T22:32:52.196Z,8.90
2022-11-12T22:35:42.497Z,8.90
2022-11-12T22:38:33.887Z,8.90
2022-11-12T22:41:22.984Z,8.90
2022-11-12T22:44:10.896Z,8.90
2022-11-12T22:46:59.162Z,9.00
2022-11-12T22:49:47.047Z,9.00
2022-11-12T22:52:36.296Z,8.90
2022-11-12T22:55:24.168Z,8.90
2022-11-12T22:58:12.068Z,8.80
2022-11-12T23:01:00.014Z,8.80
2022-11-12T23:03:47.972Z,8.80
2022-11-12T23:06:36.763Z,8.80
2022-11-12T23:09:26.085Z,8.70
2022-11-12T23:12:14.297Z,8.70
2022-11-12T23:15:02.177Z,8.70
2022-11-12T23:17:50.160Z,8.80
2022-11-12T23:20:38.086Z,8.80
2022-11-12T23:23:25.923Z,8.80
2022-11-12T23:26:16.268Z,8.80
2022-11-12T23:29:04.191Z,8.80
2022-11-12T23:31:52.067Z,8.90
2022-11-12T23:34:40.000Z,8.80
2022-11-12T23:37:27.914Z,8.90
2022-11-12T23:40:16.262Z,8.80
2022-11-12T23:43:05.440Z,8.70
2022-11-12T23:45:53.496Z,8.70
2022-11-12T23:48:41.417Z,8.80
2022-11-12T23:51:29.320Z,8.80
2022-11-12T23:54:17.265Z,8.70
2022-11-12T23:57:05.510Z,8.70
2022-11-12T23:59:54.851Z,8.70
